sensor_id;sensor_type;location;lat;lon;timestamp;pressure;altitude;pressure_sealevel;temperature;humidity
34586;BME280;20816;50.950;11.108;2023-05-11T00:01:19;98159.00;;;12.59;100.00
34586;BME280;20816;50.950;11.108;2023-05-11T00:03:46;98165.94;;;12.62;100.00
34586;BME280;20816;50.950;11.108;2023-05-11T00:06:13;98163.25;;;12.63;100.00
34586;BME280;20816;50.950;11.108;2023-05-11T00:08:40;98156.38;;;12.59;100.00
34586;BME280;20816;50.950;11.108;2023-05-11T00:11:07;98154.53;;;12.61;100.00
34586;BME280;20816;50.950;11.108;2023-05-11T00:13:34;98153.44;;;12.67;100.00
34586;BME280;20816;50.950;11.108;2023-05-11T00:16:01;98159.69;;;12.65;100.00
34586;BME280;20816;50.950;11.108;2023-05-11T00:18:28;98156.28;;;12.62;100.00
34586;BME280;20816;50.950;11.108;2023-05-11T00:20:55;98160.78;;;12.59;100.00
34586;BME280;20816;50.950;11.108;2023-05-11T00:23:22;98159.13;;;12.56;100.00
34586;BME280;20816;50.950;11.108;2023-05-11T00:25:48;98161.63;;;12.59;100.00
34586;BME280;20816;50.950;11.108;2023-05-11T00:28:15;98157.97;;;12.63;100.00
34586;BME280;20816;50.950;11.108;2023-05-11T00:30:42;98164.13;;;12.64;100.00
34586;BME280;20816;50.950;11.108;2023-05-11T00:33:10;98157.28;;;12.58;100.00
34586;BME280;20816;50.950;11.108;2023-05-11T00:35:36;98154.66;;;12.58;100.00
34586;BME280;20816;50.950;11.108;2023-05-11T00:38:03;98145.81;;;12.59;100.00
34586;BME280;20816;50.950;11.108;2023-05-11T00:40:30;98147.47;;;12.62;100.00
34586;BME280;20816;50.950;11.108;2023-05-11T00:42:57;98154.53;;;12.61;100.00
34586;BME280;20816;50.950;11.108;2023-05-11T00:45:24;98147.47;;;12.62;100.00
34586;BME280;20816;50.950;11.108;2023-05-11T00:47:51;98147.44;;;12.63;100.00
34586;BME280;20816;50.950;11.108;2023-05-11T00:50:18;98147.44;;;12.63;100.00
34586;BME280;20816;50.950;11.108;2023-05-11T00:52:45;98153.66;;;12.61;100.00
34586;BME280;20816;50.950;11.108;2023-05-11T00:55:13;98159.06;;;12.58;100.00
34586;BME280;20816;50.950;11.108;2023-05-11T00:57:39;98152.94;;;12.57;100.00
34586;BME280;20816;50.950;11.108;2023-05-11T01:00:06;98158.13;;;12.59;100.00
34586;BME280;20816;50.950;11.108;2023-05-11T01:02:33;98151.31;;;12.53;100.00
34586;BME280;20816;50.950;11.108;2023-05-11T01:05:00;98158.34;;;12.53;100.00
34586;BME280;20816;50.950;11.108;2023-05-11T01:07:57;98157.16;;;12.61;100.00
34586;BME280;20816;50.950;11.108;2023-05-11T01:10:44;98156.59;;;12.53;100.00
34586;BME280;20816;50.950;11.108;2023-05-11T01:13:25;98158.41;;;12.51;100.00
34586;BME280;20816;50.950;11.108;2023-05-11T01:15:54;98159.34;;;12.50;100.00
34586;BME280;20816;50.950;11.108;2023-05-11T01:18:45;98161.97;;;12.50;100.00
34586;BME280;20816;50.950;11.108;2023-05-11T01:21:17;98155.00;;;12.49;100.00
34586;BME280;20816;50.950;11.108;2023-05-11T01:31:55;98155.78;;;12.51;100.00
34586;BME280;20816;50.950;11.108;2023-05-11T01:34:27;98151.56;;;12.47;100.00
34586;BME280;20816;50.950;11.108;2023-05-11T01:36:59;98155.91;;;12.48;100.00
34586;BME280;20816;50.950;11.108;2023-05-11T01:39:34;98155.97;;;12.47;100.00
34586;BME280;20816;50.950;11.108;2023-05-11T01:42:06;98159.50;;;12.46;100.00
34586;BME280;20816;50.950;11.108;2023-05-11T01:44:34;98156.91;;;12.44;100.00
34586;BME280;20816;50.950;11.108;2023-05-11T01:47:03;98158.63;;;12.45;100.00
34586;BME280;20816;50.950;11.108;2023-05-11T01:49:34;98157.78;;;12.45;100.00
34586;BME280;20816;50.950;11.108;2023-05-11T01:52:06;98155.22;;;12.43;100.00
34586;BME280;20816;50.950;11.108;2023-05-11T01:54:34;98159.63;;;12.43;100.00
34586;BME280;20816;50.950;11.108;2023-05-11T01:57:03;98155.22;;;12.43;100.00
34586;BME280;20816;50.950;11.108;2023-05-11T01:59:31;98158.88;;;12.39;100.00
34586;BME280;20816;50.950;11.108;2023-05-11T02:01:59;98158.06;;;12.37;100.00
34586;BME280;20816;50.950;11.108;2023-05-11T02:04:28;98153.69;;;12.36;100.00
34586;BME280;20816;50.950;11.108;2023-05-11T02:06:55;98150.28;;;12.34;100.00
34586;BME280;20816;50.950;11.108;2023-05-11T02:09:24;98148.56;;;12.33;100.00
34586;BME280;20816;50.950;11.108;2023-05-11T02:11:52;98159.09;;;12.33;100.00
34586;BME280;20816;50.950;11.108;2023-05-11T02:14:22;98157.25;;;12.35;100.00
34586;BME280;20816;50.950;11.108;2023-05-11T02:16:50;98150.28;;;12.34;100.00
34586;BME280;20816;50.950;11.108;2023-05-11T02:19:18;98153.75;;;12.34;100.00
34586;BME280;20816;50.950;11.108;2023-05-11T02:21:46;98152.00;;;12.35;100.00
34586;BME280;20816;50.950;11.108;2023-05-11T02:24:15;98151.25;;;12.31;100.00
34586;BME280;20816;50.950;11.108;2023-05-11T02:26:43;98150.28;;;12.34;100.00
34586;BME280;20816;50.950;11.108;2023-05-11T02:29:10;98148.44;;;12.36;100.00
34586;BME280;20816;50.950;11.108;2023-05-11T02:31:41;98151.06;;;12.36;100.00
34586;BME280;20816;50.950;11.108;2023-05-11T02:34:16;98155.47;;;12.35;100.00
34586;BME280;20816;50.950;11.108;2023-05-11T02:36:52;98156.34;;;12.36;100.00
34586;BME280;20816;50.950;11.108;2023-05-11T02:39:20;98149.41;;;12.33;100.00
34586;BME280;20816;50.950;11.108;2023-05-11T02:41:54;98146.78;;;12.33;100.00
34586;BME280;20816;50.950;11.108;2023-05-11T02:44:22;98143.28;;;12.33;100.00
34586;BME280;20816;50.950;11.108;2023-05-11T02:46:53;98147.69;;;12.32;100.00
34586;BME280;20816;50.950;11.108;2023-05-11T02:49:22;98145.84;;;12.34;100.00
34586;BME280;20816;50.950;11.108;2023-05-11T02:51:53;98142.44;;;12.32;100.00
34586;BME280;20816;50.950;11.108;2023-05-11T02:54:22;98147.56;;;12.35;100.00
34586;BME280;20816;50.950;11.108;2023-05-11T02:56:50;98142.38;;;12.34;100.00
34586;BME280;20816;50.950;11.108;2023-05-11T02:59:17;98145.84;;;12.34;100.00
34586;BME280;20816;50.950;11.108;2023-05-11T03:01:44;98145.00;;;12.34;100.00
34586;BME280;20816;50.950;11.108;2023-05-11T03:04:11;98150.34;;;12.32;100.00
34586;BME280;20816;50.950;11.108;2023-05-11T03:06:38;98147.69;;;12.32;100.00
34586;BME280;20816;50.950;11.108;2023-05-11T03:09:05;98147.69;;;12.32;100.00
34586;BME280;20816;50.950;11.108;2023-05-11T03:11:36;98145.06;;;12.32;100.00
34586;BME280;20816;50.950;11.108;2023-05-11T03:14:03;98145.00;;;12.34;100.00
34586;BME280;20816;50.950;11.108;2023-05-11T03:16:30;98144.19;;;12.32;100.00
34586;BME280;20816;50.950;11.108;2023-05-11T03:18:58;98145.00;;;12.34;100.00
34586;BME280;20816;50.950;11.108;2023-05-11T03:21:27;98146.03;;;12.30;100.00
34586;BME280;20816;50.950;11.108;2023-05-11T03:23:54;98145.22;;;12.28;100.00
34586;BME280;20816;50.950;11.108;2023-05-11T03:26:22;98144.28;;;12.29;100.00
34586;BME280;20816;50.950;11.108;2023-05-11T03:28:53;98149.34;;;12.35;100.00
34586;BME280;20816;50.950;11.108;2023-05-11T03:31:21;98141.50;;;12.33;100.00
34586;BME280;20816;50.950;11.108;2023-05-11T03:33:48;98142.44;;;12.32;100.00
34586;BME280;20816;50.950;11.108;2023-05-11T03:36:14;98150.28;;;12.34;100.00
34586;BME280;20816;50.950;11.108;2023-05-11T03:38:44;98139.66;;;12.35;100.00
34586;BME280;20816;50.950;11.108;2023-05-11T03:41:14;98141.34;;;12.38;100.00
34586;BME280;20816;50.950;11.108;2023-05-11T03:43:44;98144.78;;;12.40;100.00
34586;BME280;20816;50.950;11.108;2023-05-11T03:46:12;98135.16;;;12.39;100.00
34586;BME280;20816;50.950;11.108;2023-05-11T03:48:41;98141.09;;;12.44;100.00
34586;BME280;20816;50.950;11.108;2023-05-11T03:51:08;98148.09;;;12.45;100.00
34586;BME280;20816;50.950;11.108;2023-05-11T03:53:37;98142.59;;;12.51;100.00
34586;BME280;20816;50.950;11.108;2023-05-11T03:56:04;98142.50;;;12.54;100.00
34586;BME280;20816;50.950;11.108;2023-05-11T03:58:37;98141.69;;;12.52;100.00
34586;BME280;20816;50.950;11.108;2023-05-11T04:01:05;98146.03;;;12.53;100.00
34586;BME280;20816;50.950;11.108;2023-05-11T04:03:32;98146.88;;;12.55;100.00
34586;BME280;20816;50.950;11.108;2023-05-11T04:05:59;98134.47;;;12.57;100.00
34586;BME280;20816;50.950;11.108;2023-05-11T04:08:26;98137.91;;;12.59;100.00
34586;BME280;20816;50.950;11.108;2023-05-11T04:10:52;98138.69;;;12.61;100.00
34586;BME280;20816;50.950;11.108;2023-05-11T04:13:19;98132.34;;;12.67;100.00
34586;BME280;20816;50.950;11.108;2023-05-11T04:15:46;98143.66;;;12.71;100.00
34586;BME280;20816;50.950;11.108;2023-05-11T04:18:12;98143.66;;;12.71;100.00
34586;BME280;20816;50.950;11.108;2023-05-11T04:20:39;98139.28;;;12.70;100.00
34586;BME280;20816;50.950;11.108;2023-05-11T04:23:06;98141.81;;;12.73;100.00
34586;BME280;20816;50.950;11.108;2023-05-11T04:25:35;98142.78;;;12.70;100.00
34586;BME280;20816;50.950;11.108;2023-05-11T04:28:02;98141.91;;;12.70;100.00
34586;BME280;20816;50.950;11.108;2023-05-11T04:30:29;98144.25;;;12.77;100.00
34586;BME280;20816;50.950;11.108;2023-05-11T04:32:55;98139.97;;;12.75;100.00
34586;BME280;20816;50.950;11.108;2023-05-11T04:35:22;98140.66;;;12.80;100.00
34586;BME280;20816;50.950;11.108;2023-05-11T04:37:50;98144.91;;;12.84;100.00
34586;BME280;20816;50.950;11.108;2023-05-11T04:40:17;98142.16;;;12.87;100.00
34586;BME280;20816;50.950;11.108;2023-05-11T04:42:44;98136.06;;;12.85;100.00
34586;BME280;20816;50.950;11.108;2023-05-11T04:45:11;98144.91;;;12.84;100.00
34586;BME280;20816;50.950;11.108;2023-05-11T04:47:37;98139.53;;;12.87;100.00
34586;BME280;20816;50.950;11.108;2023-05-11T04:50:05;98142.94;;;12.89;100.00
34586;BME280;20816;50.950;11.108;2023-05-11T04:52:32;98139.38;;;12.90;100.00
34586;BME280;20816;50.950;11.108;2023-05-11T04:54:59;98139.94;;;12.98;100.00
34586;BME280;20816;50.950;11.108;2023-05-11T04:57:25;98142.34;;;13.04;100.00
34586;BME280;20816;50.950;11.108;2023-05-11T04:59:52;98145.66;;;13.09;100.00
34586;BME280;20816;50.950;11.108;2023-05-11T05:02:19;98138.50;;;13.13;100.00
34586;BME280;20816;50.950;11.108;2023-05-11T05:04:46;98138.31;;;13.17;100.00
34586;BME280;20816;50.950;11.108;2023-05-11T05:07:12;98135.72;;;13.16;100.00
34586;BME280;20816;50.950;11.108;2023-05-11T05:09:39;98139.22;;;13.16;100.00
34586;BME280;20816;50.950;11.108;2023-05-11T05:12:08;98138.22;;;13.19;100.00
34586;BME280;20816;50.950;11.108;2023-05-11T05:14:35;98141.78;;;13.20;100.00
34586;BME280;20816;50.950;11.108;2023-05-11T05:17:02;98146.88;;;13.24;100.00
34586;BME280;20816;50.950;11.108;2023-05-11T05:19:29;98139.50;;;13.32;100.00
34586;BME280;20816;50.950;11.108;2023-05-11T05:21:55;98143.00;;;13.33;100.00
34586;BME280;20816;50.950;11.108;2023-05-11T05:24:22;98135.94;;;13.33;100.00
34586;BME280;20816;50.950;11.108;2023-05-11T05:26:49;98149.03;;;13.36;100.00
34586;BME280;20816;50.950;11.108;2023-05-11T05:29:15;98145.00;;;13.28;100.00
34586;BME280;20816;50.950;11.108;2023-05-11T05:31:42;98146.69;;;13.29;100.00
34586;BME280;20816;50.950;11.108;2023-05-11T05:34:12;98145.00;;;13.28;100.00
34586;BME280;20816;50.950;11.108;2023-05-11T05:36:41;98142.91;;;13.36;100.00
34586;BME280;20816;50.950;11.108;2023-05-11T05:39:13;98148.97;;;13.38;100.00
34586;BME280;20816;50.950;11.108;2023-05-11T05:41:40;98144.16;;;13.26;100.00
34586;BME280;20816;50.950;11.108;2023-05-11T05:44:08;98146.94;;;13.23;100.00
34586;BME280;20816;50.950;11.108;2023-05-11T05:46:35;98150.00;;;13.34;100.00
34586;BME280;20816;50.950;11.108;2023-05-11T05:49:02;98155.28;;;13.34;100.00
34586;BME280;20816;50.950;11.108;2023-05-11T05:51:29;98153.09;;;13.45;100.00
34586;BME280;20816;50.950;11.108;2023-05-11T05:53:57;98151.47;;;13.41;100.00
34586;BME280;20816;50.950;11.108;2023-05-11T05:56:23;98156.75;;;13.41;100.00
34586;BME280;20816;50.950;11.108;2023-05-11T05:58:50;98165.06;;;13.54;100.00
34586;BME280;20816;50.950;11.108;2023-05-11T06:01:17;98163.13;;;13.57;100.00
34586;BME280;20816;50.950;11.108;2023-05-11T06:03:44;98160.94;;;13.68;100.00
34586;BME280;20816;50.950;11.108;2023-05-11T06:06:11;98154.44;;;13.75;100.00
34586;BME280;20816;50.950;11.108;2023-05-11T06:08:37;98153.53;;;13.77;100.00
34586;BME280;20816;50.950;11.108;2023-05-11T06:11:04;98169.63;;;13.70;100.00
34586;BME280;20816;50.950;11.108;2023-05-11T06:13:31;98165.50;;;13.85;100.00
34586;BME280;20816;50.950;11.108;2023-05-11T06:15:57;98166.22;;;13.89;100.00
34586;BME280;20816;50.950;11.108;2023-05-11T06:18:24;98169.53;;;13.94;100.00
34586;BME280;20816;50.950;11.108;2023-05-11T06:20:51;98165.22;;;13.91;100.00
34586;BME280;20816;50.950;11.108;2023-05-11T06:23:18;98161.47;;;13.97;100.00
34586;BME280;20816;50.950;11.108;2023-05-11T06:25:44;98170.72;;;14.07;100.00
34586;BME280;20816;50.950;11.108;2023-05-11T06:28:11;98167.69;;;14.16;100.00
34586;BME280;20816;50.950;11.108;2023-05-11T06:30:38;98173.56;;;14.23;100.00
34586;BME280;20816;50.950;11.108;2023-05-11T06:33:05;98171.44;;;14.31;100.00
34586;BME280;20816;50.950;11.108;2023-05-11T06:35:32;98164.78;;;14.22;100.00
34586;BME280;20816;50.950;11.108;2023-05-11T06:37:59;98166.91;;;14.14;100.00
34586;BME280;20816;50.950;11.108;2023-05-11T06:40:25;98159.00;;;13.92;100.00
34586;BME280;20816;50.950;11.108;2023-05-11T06:42:53;98160.47;;;13.99;100.00
34586;BME280;20816;50.950;11.108;2023-05-11T06:45:20;98166.34;;;14.06;100.00
34586;BME280;20816;50.950;11.108;2023-05-11T06:47:47;98162.69;;;14.10;100.00
34586;BME280;20816;50.950;11.108;2023-05-11T06:50:14;98165.00;;;14.18;100.00
34586;BME280;20816;50.950;11.108;2023-05-11T06:52:41;98168.22;;;14.04;100.00
34586;BME280;20816;50.950;11.108;2023-05-11T06:55:11;98163.41;;;14.14;100.00
34586;BME280;20816;50.950;11.108;2023-05-11T06:57:39;98162.69;;;14.10;100.00
34586;BME280;20816;50.950;11.108;2023-05-11T07:00:07;98159.09;;;14.11;100.00
34586;BME280;20816;50.950;11.108;2023-05-11T07:02:33;98162.28;;;14.19;100.00
34586;BME280;20816;50.950;11.108;2023-05-11T07:05:00;98159.38;;;14.25;100.00
34586;BME280;20816;50.950;11.108;2023-05-11T07:07:27;98168.72;;;14.32;100.00
34586;BME280;20816;50.950;11.108;2023-05-11T07:09:54;98156.88;;;14.41;100.00
34586;BME280;20816;50.950;11.108;2023-05-11T07:12:21;98158.56;;;14.44;100.00
34586;BME280;20816;50.950;11.108;2023-05-11T07:14:48;98171.34;;;14.34;100.00
34586;BME280;20816;50.950;11.108;2023-05-11T07:17:15;98172.75;;;14.41;100.00
34586;BME280;20816;50.950;11.108;2023-05-11T07:19:41;98156.59;;;14.28;100.00
34586;BME280;20816;50.950;11.108;2023-05-11T07:22:08;98160.97;;;14.09;100.00
34586;BME280;20816;50.950;11.108;2023-05-11T07:24:35;98160.03;;;14.10;100.00
34586;BME280;20816;50.950;11.108;2023-05-11T07:27:03;98163.06;;;14.01;100.00
34586;BME280;20816;50.950;11.108;2023-05-11T07:29:29;98159.22;;;14.08;100.00
34586;BME280;20816;50.950;11.108;2023-05-11T07:31:56;98164.47;;;14.10;100.00
34586;BME280;20816;50.950;11.108;2023-05-11T07:34:23;98163.59;;;14.09;100.00
34586;BME280;20816;50.950;11.108;2023-05-11T07:36:50;98165.50;;;14.06;100.00
34586;BME280;20816;50.950;11.108;2023-05-11T07:39:17;98158.22;;;14.31;100.00
34586;BME280;20816;50.950;11.108;2023-05-11T07:41:44;98162.25;;;14.40;100.00
34586;BME280;20816;50.950;11.108;2023-05-11T07:44:11;98153.22;;;14.45;100.00
34586;BME280;20816;50.950;11.108;2023-05-11T07:46:38;98162.53;;;14.54;100.00
34586;BME280;20816;50.950;11.108;2023-05-11T07:49:05;98161.41;;;14.60;100.00
34586;BME280;20816;50.950;11.108;2023-05-11T07:51:39;98160.81;;;14.53;100.00
34586;BME280;20816;50.950;11.108;2023-05-11T07:54:06;98168.28;;;14.43;100.00
34586;BME280;20816;50.950;11.108;2023-05-11T07:56:33;98169.69;;;14.52;100.00
34586;BME280;20816;50.950;11.108;2023-05-11T07:58:59;98168.63;;;14.36;100.00
34586;BME280;20816;50.950;11.108;2023-05-11T08:01:26;98163.66;;;14.48;100.00
34586;BME280;20816;50.950;11.108;2023-05-11T08:03:53;98165.84;;;14.59;100.00
34586;BME280;20816;50.950;11.108;2023-05-11T08:06:20;98176.13;;;14.65;100.00
34586;BME280;20816;50.950;11.108;2023-05-11T08:08:47;98161.84;;;14.69;100.00
34586;BME280;20816;50.950;11.108;2023-05-11T08:11:14;98162.25;;;14.60;100.00
34586;BME280;20816;50.950;11.108;2023-05-11T08:13:41;98165.53;;;14.65;100.00
34586;BME280;20816;50.950;11.108;2023-05-11T08:16:07;98162.25;;;14.60;100.00
34586;BME280;20816;50.950;11.108;2023-05-11T08:18:35;98170.19;;;14.60;100.00
34586;BME280;20816;50.950;11.108;2023-05-11T08:21:02;98166.69;;;14.60;100.00
34586;BME280;20816;50.950;11.108;2023-05-11T08:23:29;98179.53;;;14.48;100.00
34586;BME280;20816;50.950;11.108;2023-05-11T08:25:55;98176.84;;;14.50;100.00
34586;BME280;20816;50.950;11.108;2023-05-11T08:28:22;98167.56;;;14.60;100.00
34586;BME280;20816;50.950;11.108;2023-05-11T08:30:54;98170.56;;;14.71;100.00
34586;BME280;20816;50.950;11.108;2023-05-11T08:33:21;98169.94;;;14.85;100.00
34586;BME280;20816;50.950;11.108;2023-05-11T08:36:03;98175.88;;;15.09;100.00
34586;BME280;20816;50.950;11.108;2023-05-11T08:38:30;98175.44;;;15.37;100.00
34586;BME280;20816;50.950;11.108;2023-05-11T08:40:57;98169.34;;;15.35;100.00
34586;BME280;20816;50.950;11.108;2023-05-11T08:43:25;98167.47;;;15.56;100.00
34586;BME280;20816;50.950;11.108;2023-05-11T08:45:56;98172.09;;;15.33;100.00
34586;BME280;20816;50.950;11.108;2023-05-11T08:48:26;98170.16;;;15.18;100.00
34586;BME280;20816;50.950;11.108;2023-05-11T08:50:54;98168.50;;;15.34;100.00
34586;BME280;20816;50.950;11.108;2023-05-11T08:53:21;98170.84;;;15.40;100.00
34586;BME280;20816;50.950;11.108;2023-05-11T08:55:49;98172.00;;;15.35;100.00
34586;BME280;20816;50.950;11.108;2023-05-11T08:58:17;98171.25;;;15.50;100.00
34586;BME280;20816;50.950;11.108;2023-05-11T09:00:48;98175.53;;;15.53;100.00
34586;BME280;20816;50.950;11.108;2023-05-11T09:03:16;98168.47;;;15.72;100.00
34586;BME280;20816;50.950;11.108;2023-05-11T09:05:45;98179.44;;;15.64;100.00
34586;BME280;20816;50.950;11.108;2023-05-11T09:08:13;98166.59;;;15.91;100.00
34586;BME280;20816;50.950;11.108;2023-05-11T09:10:41;98169.94;;;15.95;100.00
34586;BME280;20816;50.950;11.108;2023-05-11T09:13:10;98168.66;;;16.21;100.00
34586;BME280;20816;50.950;11.108;2023-05-11T09:15:36;98171.41;;;16.35;100.00
34586;BME280;20816;50.950;11.108;2023-05-11T09:18:04;98174.63;;;16.24;100.00
34586;BME280;20816;50.950;11.108;2023-05-11T09:20:32;98161.47;;;16.23;100.00
34586;BME280;20816;50.950;11.108;2023-05-11T09:22:59;98166.59;;;16.26;100.00
34586;BME280;20816;50.950;11.108;2023-05-11T09:25:29;98161.75;;;16.17;100.00
34586;BME280;20816;50.950;11.108;2023-05-11T09:27:58;98161.84;;;15.98;100.00
34586;BME280;20816;50.950;11.108;2023-05-11T09:30:25;98161.31;;;16.09;100.00
34586;BME280;20816;50.950;11.108;2023-05-11T09:32:57;98169.84;;;16.48;100.00
34586;BME280;20816;50.950;11.108;2023-05-11T09:40:28;98162.16;;;16.77;100.00
34586;BME280;20816;50.950;11.108;2023-05-11T09:43:01;98161.44;;;16.40;100.00
34586;BME280;20816;50.950;11.108;2023-05-11T09:45:39;98166.16;;;16.51;100.00
34586;BME280;20816;50.950;11.108;2023-05-11T09:50:47;98156.91;;;16.42;100.00
34586;BME280;20816;50.950;11.108;2023-05-11T09:53:14;98159.25;;;16.48;100.00
34586;BME280;20816;50.950;11.108;2023-05-11T09:55:52;98166.44;;;16.46;100.00
34586;BME280;20816;50.950;11.108;2023-05-11T09:58:19;98158.06;;;16.71;100.00
34586;BME280;20816;50.950;11.108;2023-05-11T10:00:50;98164.59;;;16.97;99.79
34586;BME280;20816;50.950;11.108;2023-05-11T10:03:18;98157.41;;;17.31;99.07
34586;BME280;20816;50.950;11.108;2023-05-11T10:05:57;98156.22;;;17.52;97.00
34586;BME280;20816;50.950;11.108;2023-05-11T10:08:28;98157.00;;;17.70;96.67
34586;BME280;20816;50.950;11.108;2023-05-11T10:10:57;98153.75;;;17.95;96.65
34586;BME280;20816;50.950;11.108;2023-05-11T10:13:24;98159.41;;;17.89;96.32
34586;BME280;20816;50.950;11.108;2023-05-11T10:15:53;98150.03;;;17.68;96.53
34586;BME280;20816;50.950;11.108;2023-05-11T10:18:21;98150.91;;;17.52;96.78
34586;BME280;20816;50.950;11.108;2023-05-11T10:20:48;98147.81;;;17.44;98.93
34586;BME280;20816;50.950;11.108;2023-05-11T10:23:15;98150.38;;;17.30;100.00
34586;BME280;20816;50.950;11.108;2023-05-11T10:25:43;98143.38;;;17.29;99.01
34586;BME280;20816;50.950;11.108;2023-05-11T10:28:10;98141.28;;;17.18;99.56
34586;BME280;20816;50.950;11.108;2023-05-11T10:30:39;98148.78;;;17.12;100.00
34586;BME280;20816;50.950;11.108;2023-05-11T10:33:07;98149.81;;;16.76;99.91
34586;BME280;20816;50.950;11.108;2023-05-11T10:35:37;98145.81;;;16.85;100.00
34586;BME280;20816;50.950;11.108;2023-05-11T10:38:06;98147.03;;;16.79;100.00
34586;BME280;20816;50.950;11.108;2023-05-11T10:40:35;98141.47;;;16.99;100.00
34586;BME280;20816;50.950;11.108;2023-05-11T10:54:28;98144.03;;;16.68;100.00
34586;BME280;20816;50.950;11.108;2023-05-11T11:02:02;98135.88;;;16.72;100.00
34586;BME280;20816;50.950;11.108;2023-05-11T11:04:46;98138.16;;;16.63;100.00
34586;BME280;20816;50.950;11.108;2023-05-11T11:07:15;98139.56;;;16.70;100.00
34586;BME280;20816;50.950;11.108;2023-05-11T11:09:57;98139.06;;;16.79;100.00
34586;BME280;20816;50.950;11.108;2023-05-11T11:12:27;98136.31;;;16.80;100.00
34586;BME280;20816;50.950;11.108;2023-05-11T11:14:57;98137.50;;;16.75;100.00
34586;BME280;20816;50.950;11.108;2023-05-11T11:17:27;98144.31;;;16.96;100.00
34586;BME280;20816;50.950;11.108;2023-05-11T11:20:44;98134.97;;;16.89;100.00
34586;BME280;20816;50.950;11.108;2023-05-11T11:26:06;98138.56;;;17.35;99.49
34586;BME280;20816;50.950;11.108;2023-05-11T11:29:06;98136.13;;;17.62;98.62
34586;BME280;20816;50.950;11.108;2023-05-11T11:31:34;98141.22;;;17.97;97.70
34586;BME280;20816;50.950;11.108;2023-05-11T11:42:12;98130.28;;;19.17;87.41
34586;BME280;20816;50.950;11.108;2023-05-11T11:47:37;98133.25;;;19.81;81.64
34586;BME280;20816;50.950;11.108;2023-05-11T11:50:10;98132.50;;;19.92;81.70
34586;BME280;20816;50.950;11.108;2023-05-11T11:52:38;98132.56;;;20.04;81.22
34586;BME280;20816;50.950;11.108;2023-05-11T11:55:05;98126.63;;;19.86;83.76
34586;BME280;20816;50.950;11.108;2023-05-11T12:00:06;98122.66;;;19.25;83.97
34586;BME280;20816;50.950;11.108;2023-05-11T12:02:43;98122.75;;;19.51;84.52
34586;BME280;20816;50.950;11.108;2023-05-11T12:05:15;98121.22;;;20.01;82.89
34586;BME280;20816;50.950;11.108;2023-05-11T12:07:49;98116.31;;;20.07;81.86
34586;BME280;20816;50.950;11.108;2023-05-11T12:10:18;98113.69;;;20.20;81.29
34586;BME280;20816;50.950;11.108;2023-05-11T12:12:47;98115.19;;;20.50;80.81
34586;BME280;20816;50.950;11.108;2023-05-11T12:15:28;98109.41;;;20.81;78.46
34586;BME280;20816;50.950;11.108;2023-05-11T12:17:55;98113.78;;;20.82;79.89
34586;BME280;20816;50.950;11.108;2023-05-11T12:20:23;98106.25;;;21.13;76.92
34586;BME280;20816;50.950;11.108;2023-05-11T12:22:50;98106.31;;;21.61;74.53
34586;BME280;20816;50.950;11.108;2023-05-11T12:25:20;98102.38;;;22.13;73.63
34586;BME280;20816;50.950;11.108;2023-05-11T12:27:50;98103.16;;;22.37;73.82
34586;BME280;20816;50.950;11.108;2023-05-11T12:30:29;98104.34;;;22.10;72.30
34586;BME280;20816;50.950;11.108;2023-05-11T12:32:56;98095.81;;;21.58;75.23
34586;BME280;20816;50.950;11.108;2023-05-11T12:35:29;98099.47;;;20.83;78.64
34586;BME280;20816;50.950;11.108;2023-05-11T12:37:58;98108.22;;;19.96;81.96
34586;BME280;20816;50.950;11.108;2023-05-11T12:40:25;98100.66;;;19.63;82.43
34586;BME280;20816;50.950;11.108;2023-05-11T12:42:54;98097.91;;;19.23;84.93
34586;BME280;20816;50.950;11.108;2023-05-11T12:45:22;98106.50;;;19.41;84.44
34586;BME280;20816;50.950;11.108;2023-05-11T12:47:51;98094.16;;;19.53;83.87
34586;BME280;20816;50.950;11.108;2023-05-11T12:50:19;98101.53;;;19.22;83.26
34586;BME280;20816;50.950;11.108;2023-05-11T12:52:47;98098.47;;;19.55;82.41
34586;BME280;20816;50.950;11.108;2023-05-11T12:55:26;98100.13;;;19.44;82.63
34586;BME280;20816;50.950;11.108;2023-05-11T12:58:12;98097.34;;;19.45;83.85
34586;BME280;20816;50.950;11.108;2023-05-11T13:00:56;98091.06;;;19.19;83.69
34586;BME280;20816;50.950;11.108;2023-05-11T13:03:25;98101.56;;;19.08;85.25
34586;BME280;20816;50.950;11.108;2023-05-11T13:06:12;98101.44;;;18.68;88.11
34586;BME280;20816;50.950;11.108;2023-05-11T13:08:43;98106.91;;;18.51;89.24
34586;BME280;20816;50.950;11.108;2023-05-11T13:11:20;98109.50;;;17.94;95.11
34586;BME280;20816;50.950;11.108;2023-05-11T13:13:52;98112.34;;;17.45;99.23
34586;BME280;20816;50.950;11.108;2023-05-11T13:16:37;98100.66;;;17.48;100.00
34586;BME280;20816;50.950;11.108;2023-05-11T13:19:05;98100.00;;;17.44;100.00
34586;BME280;20816;50.950;11.108;2023-05-11T13:21:34;98100.53;;;17.35;100.00
34586;BME280;20816;50.950;11.108;2023-05-11T13:24:00;98098.97;;;17.31;100.00
34586;BME280;20816;50.950;11.108;2023-05-11T13:26:29;98095.56;;;17.29;100.00
34586;BME280;20816;50.950;11.108;2023-05-11T13:28:56;98102.72;;;17.43;100.00
34586;BME280;20816;50.950;11.108;2023-05-11T13:31:46;98097.59;;;17.40;100.00
34586;BME280;20816;50.950;11.108;2023-05-11T13:34:13;98100.00;;;17.44;100.00
34586;BME280;20816;50.950;11.108;2023-05-11T13:36:40;98104.03;;;17.65;100.00
34586;BME280;20816;50.950;11.108;2023-05-11T13:39:07;98098.47;;;17.86;100.00